createdAt,value
2019-04-04T00:01:18.561Z,99600.72
2019-04-04T00:03:47.034Z,99588.55
2019-04-04T00:06:15.532Z,99601.44
2019-04-04T00:08:44.062Z,99601.08
2019-04-04T00:11:14.216Z,99599.41
2019-04-04T00:13:42.689Z,99590.77
2019-04-04T00:16:11.157Z,99596.03
2019-04-04T00:18:39.636Z,99595.68
2019-04-04T00:21:08.103Z,99594.69
2019-04-04T00:23:38.030Z,99587.56
2019-04-04T00:26:07.049Z,99585.88
2019-04-04T00:28:35.512Z,99590.11
2019-04-04T00:31:04.042Z,99577.77
2019-04-04T00:33:32.578Z,99575.21
2019-04-04T00:36:02.758Z,99548.61
2019-04-04T00:38:31.319Z,99530.34
2019-04-04T00:40:59.804Z,99513.42
2019-04-04T00:43:28.263Z,99520.85
2019-04-04T00:45:56.752Z,99560.09
2019-04-04T00:48:25.210Z,99569.56
2019-04-04T00:50:53.693Z,99558.58
2019-04-04T00:53:22.236Z,99555.36
2019-04-04T00:55:50.764Z,99542.82
2019-04-04T00:58:20.829Z,99558.42
2019-04-04T01:00:49.558Z,99563.16
2019-04-04T01:03:18.078Z,99555.05
2019-04-04T01:05:46.562Z,99559.27
2019-04-04T01:08:15.105Z,99568.22
2019-04-04T01:10:43.571Z,99490.93
2019-04-04T01:13:12.034Z,99492.28
2019-04-04T01:15:40.657Z,99506.97
2019-04-04T01:18:09.135Z,99502.91
2019-04-04T01:20:37.596Z,99492.95
2019-04-04T01:23:06.157Z,99520.16
2019-04-04T01:25:34.790Z,99536.56
2019-04-04T01:28:03.270Z,99548.53
2019-04-04T01:30:31.809Z,99552.27
2019-04-04T01:33:00.274Z,99562.72
2019-04-04T01:35:28.737Z,99575.92
2019-04-04T01:37:58.235Z,99592.48
2019-04-04T01:40:27.284Z,99589.97
2019-04-04T01:42:55.758Z,99597.22
2019-04-04T01:45:24.247Z,99603.98
2019-04-04T01:47:52.701Z,99597.91
2019-04-04T01:50:22.903Z,99594.36
2019-04-04T01:52:51.360Z,99588.11
2019-04-04T01:55:19.849Z,99575.41
2019-04-04T01:57:48.391Z,99572.88
2019-04-04T02:00:17.000Z,99565.78
2019-04-04T02:02:45.473Z,99551.72
2019-04-04T02:05:13.995Z,99536.17
2019-04-04T02:07:42.463Z,99528.06
2019-04-04T02:10:11.395Z,99522.13
2019-04-04T02:12:39.873Z,99517.22
2019-04-04T02:15:13.930Z,99511.61
2019-04-04T02:17:42.137Z,99507.55
2019-04-04T02:20:10.749Z,99507.39
2019-04-04T02:22:39.236Z,99510.45
2019-04-04T02:25:08.096Z,99501.14
2019-04-04T02:27:37.939Z,99486.59
2019-04-04T02:30:07.525Z,99484.52
2019-04-04T02:32:36.017Z,99485.03
2019-04-04T02:35:10.040Z,99491.27
2019-04-04T02:37:36.629Z,99500.05
2019-04-04T02:40:09.158Z,99497.66
2019-04-04T02:42:39.189Z,99482.78
2019-04-04T02:45:08.645Z,99477.69
2019-04-04T02:47:37.094Z,99466.84
2019-04-04T02:50:07.100Z,99479.70
2019-04-04T02:52:35.621Z,99476.16
2019-04-04T02:55:04.829Z,99468.88
2019-04-04T02:57:33.279Z,99460.59
2019-04-04T03:00:01.964Z,99467.34
2019-04-04T03:02:30.397Z,99462.77
2019-04-04T03:04:58.962Z,99460.22
2019-04-04T03:07:30.107Z,99457.67
2019-04-04T03:09:57.837Z,99471.38
2019-04-04T03:12:26.985Z,99474.39
2019-04-04T03:14:55.679Z,99475.22
2019-04-04T03:17:25.737Z,99470.12
2019-04-04T03:19:54.284Z,99471.97
2019-04-04T03:22:24.590Z,99480.58
2019-04-04T03:24:52.999Z,99484.28
2019-04-04T03:27:25.454Z,99476.52
2019-04-04T03:29:51.778Z,99474.50
2019-04-04T03:32:20.256Z,99483.95
2019-04-04T03:34:51.174Z,99482.07
2019-04-04T03:37:19.039Z,99475.30
2019-04-04T03:39:51.914Z,99487.44
2019-04-04T03:42:17.710Z,99492.48
2019-04-04T03:44:46.217Z,99504.28
2019-04-04T03:47:14.649Z,99502.75
2019-04-04T03:49:43.142Z,99500.39
2019-04-04T03:52:11.715Z,99494.09
2019-04-04T03:54:41.075Z,99506.58
2019-04-04T03:57:12.226Z,99506.22
2019-04-04T03:59:39.765Z,99517.84
2019-04-04T04:02:08.251Z,99527.29
2019-04-04T04:05:00.506Z,99533.73
2019-04-04T04:07:26.225Z,99535.93
2019-04-04T04:09:59.278Z,99546.58
2019-04-04T04:12:24.917Z,99549.13
2019-04-04T04:14:54.776Z,99553.88
2019-04-04T04:17:23.718Z,99553.36
2019-04-04T04:19:52.357Z,99545.77
2019-04-04T04:22:20.821Z,99537.66
2019-04-04T04:24:51.865Z,99529.72
2019-04-04T04:27:20.335Z,99523.29
2019-04-04T04:29:48.793Z,99518.94
2019-04-04T04:32:21.274Z,99521.33
2019-04-04T04:34:47.545Z,99527.58
2019-04-04T04:37:19.855Z,99531.80
2019-04-04T04:39:46.285Z,99546.00
2019-04-04T04:42:14.746Z,99550.59
2019-04-04T04:44:43.219Z,99542.66
2019-04-04T04:47:11.680Z,99541.30
2019-04-04T04:49:40.173Z,99544.21
2019-04-04T04:52:08.691Z,99542.70
2019-04-04T04:54:37.180Z,99532.59
2019-04-04T04:57:05.643Z,99522.47
2019-04-04T04:59:34.146Z,99509.12
2019-04-04T05:02:02.740Z,99504.08
2019-04-04T05:04:31.225Z,99511.50
2019-04-04T05:06:59.751Z,99529.09
2019-04-04T05:09:28.261Z,99547.34
2019-04-04T05:11:56.729Z,99562.05
2019-04-04T05:14:25.194Z,99559.16
2019-04-04T05:16:53.681Z,99556.66
2019-04-04T05:19:22.211Z,99555.16
2019-04-04T05:21:50.715Z,99562.93
2019-04-04T05:24:19.165Z,99558.04
2019-04-04T05:26:47.676Z,99548.23
2019-04-04T05:29:16.131Z,99548.09
2019-04-04T05:31:44.613Z,99559.59
2019-04-04T05:34:13.130Z,99559.42
2019-04-04T05:36:41.633Z,99551.49
2019-04-04T05:39:10.094Z,99553.72
2019-04-04T05:41:38.580Z,99543.07
2019-04-04T05:44:09.066Z,99540.54
2019-04-04T05:46:38.412Z,99544.27
2019-04-04T05:49:08.310Z,99552.37
2019-04-04T05:51:37.055Z,99545.47
2019-04-04T05:54:46.578Z,99544.28
2019-04-04T05:57:15.082Z,99551.73
2019-04-04T05:59:43.601Z,99553.08
2019-04-04T06:02:12.221Z,99552.92
2019-04-04T06:04:41.224Z,99549.55
2019-04-04T06:07:09.706Z,99552.77
2019-04-04T06:09:38.175Z,99547.52
2019-04-04T06:12:06.729Z,99548.72
2019-04-04T06:14:35.206Z,99542.13
2019-04-04T06:17:05.094Z,99542.96
2019-04-04T06:19:33.982Z,99535.89
2019-04-04T06:22:02.535Z,99538.09
2019-04-04T06:24:31.001Z,99537.41
2019-04-04T06:26:59.557Z,99541.03
2019-04-04T06:29:28.021Z,99541.72
2019-04-04T06:31:59.988Z,99547.97
2019-04-04T06:34:28.305Z,99549.48
2019-04-04T06:36:56.793Z,99556.25
2019-04-04T06:39:25.798Z,99566.07
2019-04-04T06:41:54.339Z,99567.80
2019-04-04T06:44:22.882Z,99563.91
2019-04-04T06:46:53.468Z,99555.95
2019-04-04T06:49:21.701Z,99549.55
2019-04-04T06:51:50.191Z,99542.78
2019-04-04T06:54:18.683Z,99536.33
2019-04-04T06:56:47.168Z,99530.56
2019-04-04T06:59:15.644Z,99521.97
2019-04-04T07:01:44.147Z,99523.64
2019-04-04T07:04:12.620Z,99530.77
2019-04-04T07:06:41.979Z,99524.53
2019-04-04T07:09:13.365Z,99523.50
2019-04-04T07:11:41.170Z,99520.80
2019-04-04T07:14:09.644Z,99533.17
2019-04-04T07:16:38.104Z,99540.94
2019-04-04T07:19:08.047Z,99540.45
2019-04-04T07:21:36.746Z,99540.95
2019-04-04T07:24:05.404Z,99548.22
2019-04-04T07:26:33.863Z,99556.86
2019-04-04T07:29:03.882Z,99556.03
2019-04-04T07:31:33.947Z,99556.35
2019-04-04T07:34:02.642Z,99564.97
2019-04-04T07:36:33.171Z,99573.94
2019-04-04T07:39:04.714Z,99569.21
2019-04-04T07:41:33.192Z,99575.50
2019-04-04T07:44:05.685Z,99575.66
2019-04-04T07:46:45.373Z,99577.02
2019-04-04T07:49:11.450Z,99569.94
2019-04-04T07:51:39.925Z,99576.71
2019-04-04T07:54:08.421Z,99571.46
2019-04-04T07:56:37.077Z,99562.67
2019-04-04T07:59:05.601Z,99549.13
2019-04-04T08:01:34.129Z,99539.17
2019-04-04T08:04:02.600Z,99539.86
2019-04-04T08:06:31.158Z,99545.08
2019-04-04T08:09:02.799Z,99553.05
2019-04-04T08:11:32.683Z,99566.58
2019-04-04T08:14:01.219Z,99562.55
2019-04-04T08:16:29.891Z,99552.72
2019-04-04T08:18:58.404Z,99539.02
2019-04-04T08:21:26.872Z,99529.22
2019-04-04T08:23:55.354Z,99529.37
2019-04-04T08:26:23.836Z,99540.41
2019-04-04T08:28:52.361Z,99558.52
2019-04-04T08:31:22.346Z,99559.36
2019-04-04T08:33:50.836Z,99551.73
2019-04-04T08:36:19.304Z,99547.15
2019-04-04T08:38:52.200Z,99546.81
2019-04-04T08:41:20.907Z,99546.13
2019-04-04T08:43:49.381Z,99553.58
2019-04-04T08:46:19.838Z,99556.12
2019-04-04T08:48:48.489Z,99556.81
2019-04-04T08:51:16.964Z,99560.36
2019-04-04T08:53:45.677Z,99558.97
2019-04-04T08:56:14.160Z,99572.02
2019-04-04T08:58:42.653Z,99567.79
2019-04-04T09:01:11.181Z,99568.78
2019-04-04T09:03:39.691Z,99580.83
2019-04-04T09:06:08.162Z,99585.91
2019-04-04T09:08:36.691Z,99587.42
2019-04-04T09:11:05.235Z,99583.34
2019-04-04T09:13:33.808Z,99588.95
2019-04-04T09:16:02.355Z,99587.27
2019-04-04T09:18:30.930Z,99583.02
2019-04-04T09:20:59.392Z,99580.14
2019-04-04T09:23:29.419Z,99599.79
2019-04-04T09:26:05.523Z,99606.92
2019-04-04T09:28:28.238Z,99617.58
2019-04-04T09:30:56.699Z,99609.28
2019-04-04T09:33:25.177Z,99617.77
2019-04-04T09:35:53.815Z,99616.73
2019-04-04T09:38:22.358Z,99614.70
2019-04-04T09:40:50.973Z,99606.56
2019-04-04T09:43:19.449Z,99606.05
2019-04-04T09:45:47.995Z,99601.81
2019-04-04T09:48:19.505Z,99606.25
2019-04-04T09:50:47.962Z,99598.44
2019-04-04T09:53:16.457Z,99599.09
2019-04-04T09:55:44.965Z,99597.94
2019-04-04T09:58:13.464Z,99601.13
2019-04-04T10:00:42.163Z,99589.80
2019-04-04T10:03:10.736Z,99582.48
2019-04-04T10:05:39.225Z,99583.69
2019-04-04T10:08:08.087Z,99595.89
2019-04-04T10:10:36.629Z,99595.36
2019-04-04T10:13:05.251Z,99590.47
2019-04-04T10:15:33.726Z,99589.45
2019-04-04T10:18:02.281Z,99595.70
2019-04-04T10:20:30.756Z,99592.16
2019-04-04T10:22:59.238Z,99593.50
2019-04-04T10:25:29.354Z,99594.49
2019-04-04T10:27:57.935Z,99588.19
2019-04-04T10:30:26.472Z,99591.78
2019-04-04T10:32:54.962Z,99588.58
2019-04-04T10:35:23.510Z,99600.27
2019-04-04T10:37:52.046Z,99596.52
2019-04-04T10:40:20.672Z,99592.13
2019-04-04T10:42:49.131Z,99588.86
2019-04-04T10:45:17.751Z,99584.32
2019-04-04T10:47:46.282Z,99574.61
2019-04-04T10:50:15.620Z,99567.29
2019-04-04T10:52:44.152Z,99565.95
2019-04-04T10:55:13.062Z,99570.36
2019-04-04T10:57:41.535Z,99570.39
2019-04-04T11:00:10.860Z,99577.67
2019-04-04T11:02:39.462Z,99579.05
2019-04-04T11:05:08.074Z,99587.15
2019-04-04T11:07:36.568Z,99594.60
2019-04-04T11:10:07.266Z,99599.19
2019-04-04T11:12:35.801Z,99600.03
2019-04-04T11:15:10.766Z,99601.55
2019-04-04T11:17:39.257Z,99595.77
2019-04-04T11:20:07.960Z,99587.12
2019-04-04T11:22:41.243Z,99592.53
2019-04-04T11:25:09.952Z,99592.84
2019-04-04T11:27:38.516Z,99583.69
2019-04-04T11:30:15.434Z,99574.01
2019-04-04T11:32:40.876Z,99579.27
2019-04-04T11:35:11.240Z,99587.36
2019-04-04T11:37:39.731Z,99585.83
2019-04-04T11:40:08.539Z,99595.52
2019-04-04T11:42:37.289Z,99603.66
2019-04-04T11:45:06.214Z,99604.64
2019-04-04T11:47:34.730Z,99603.98
2019-04-04T11:50:03.948Z,99602.15
2019-04-04T11:52:32.431Z,99600.77
2019-04-04T11:55:01.688Z,99606.52
2019-04-04T11:57:30.186Z,99616.47
2019-04-04T11:59:58.647Z,99618.33
2019-04-04T12:02:28.628Z,99616.27
2019-04-04T12:04:57.918Z,99624.97
2019-04-04T12:07:26.451Z,99625.98
2019-04-04T12:10:06.879Z,99629.23
2019-04-04T12:12:25.229Z,99633.80
2019-04-04T12:14:53.839Z,99641.29
2019-04-04T12:17:22.303Z,99643.63
2019-04-04T12:19:52.332Z,99645.83
2019-04-04T12:22:20.800Z,99637.51
2019-04-04T12:24:49.535Z,99645.31
2019-04-04T12:27:18.015Z,99638.34
2019-04-04T12:29:48.683Z,99637.69
2019-04-04T12:32:17.196Z,99641.75
2019-04-04T12:34:45.998Z,99635.14
2019-04-04T12:37:14.497Z,99634.74
2019-04-04T12:39:45.167Z,99635.09
2019-04-04T12:42:13.717Z,99632.20
2019-04-04T12:44:42.203Z,99626.57
2019-04-04T12:47:10.667Z,99618.05
2019-04-04T12:49:41.223Z,99611.25
2019-04-04T12:52:11.231Z,99609.52
2019-04-04T12:54:39.723Z,99609.42
2019-04-04T12:57:08.194Z,99614.69
2019-04-04T12:59:36.689Z,99607.30
2019-04-04T13:02:05.615Z,99611.69
2019-04-04T13:04:34.080Z,99604.37
2019-04-04T13:07:02.619Z,99604.20
2019-04-04T13:09:31.079Z,99595.36
2019-04-04T13:11:59.583Z,99601.50
2019-04-04T13:14:29.579Z,99606.63
2019-04-04T13:16:58.203Z,99604.22
2019-04-04T13:19:26.699Z,99603.47
2019-04-04T13:21:56.588Z,99603.25
2019-04-04T13:24:25.063Z,99614.76
2019-04-04T13:26:58.384Z,99621.52
2019-04-04T13:29:26.947Z,99615.84
2019-04-04T13:31:58.429Z,99626.44
2019-04-04T13:34:29.707Z,99631.93
2019-04-04T13:36:58.337Z,99621.69
2019-04-04T13:39:26.837Z,99628.14
2019-04-04T13:41:55.307Z,99628.11
2019-04-04T13:44:26.847Z,99623.95
2019-04-04T13:46:55.373Z,99623.31
2019-04-04T13:49:24.599Z,99613.88
2019-04-04T13:51:53.719Z,99613.66
2019-04-04T13:54:23.853Z,99616.02
2019-04-04T13:56:52.874Z,99612.27
2019-04-04T13:59:23.906Z,99617.08
2019-04-04T14:01:52.393Z,99616.80
2019-04-04T14:04:24.456Z,99611.41
2019-04-04T14:06:51.164Z,99617.56
2019-04-04T14:09:19.719Z,99613.30
2019-04-04T14:11:48.274Z,99620.70
2019-04-04T14:14:16.793Z,99618.22
2019-04-04T14:16:45.261Z,99620.33
2019-04-04T14:19:13.772Z,99617.17
2019-04-04T14:21:42.387Z,99620.02
2019-04-04T14:24:13.853Z,99618.52
2019-04-04T14:26:41.092Z,99616.97
2019-04-04T14:29:09.565Z,99620.01
2019-04-04T14:31:38.062Z,99615.67
2019-04-04T14:34:06.567Z,99607.75
2019-04-04T14:36:41.948Z,99604.91
2019-04-04T14:39:10.432Z,99600.29
2019-04-04T14:41:38.922Z,99601.79
2019-04-04T14:44:07.424Z,99604.70
2019-04-04T14:46:39.342Z,99608.54
2019-04-04T14:49:07.706Z,99607.83
2019-04-04T14:51:36.200Z,99602.48
2019-04-04T14:54:06.248Z,99605.58
2019-04-04T14:56:34.744Z,99602.67
2019-04-04T14:59:06.084Z,99596.91
2019-04-04T15:01:35.152Z,99596.63
2019-04-04T15:04:03.849Z,99593.47
2019-04-04T15:06:32.333Z,99582.74
2019-04-04T15:09:01.357Z,99589.27
2019-04-04T15:11:31.371Z,99582.56
2019-04-04T15:14:02.901Z,99579.84
2019-04-04T15:16:32.699Z,99574.86
2019-04-04T15:19:01.273Z,99576.66
2019-04-04T15:21:29.841Z,99576.59
2019-04-04T15:23:58.302Z,99576.25
2019-04-04T15:26:26.955Z,99582.87
2019-04-04T15:28:55.783Z,99587.68
2019-04-04T15:31:24.228Z,99589.50
2019-04-04T15:33:52.709Z,99586.97
2019-04-04T15:36:21.329Z,99589.82
2019-04-04T15:38:49.839Z,99589.20
2019-04-04T15:41:18.379Z,99575.95
2019-04-04T15:43:46.846Z,99571.27
2019-04-04T15:46:15.705Z,99581.77
2019-04-04T15:48:47.231Z,99584.78
2019-04-04T15:51:15.791Z,99586.27
2019-04-04T15:53:44.309Z,99581.99
2019-04-04T15:56:16.783Z,99592.73
2019-04-04T15:58:45.295Z,99595.22
2019-04-04T16:01:13.764Z,99602.21
2019-04-04T16:03:42.266Z,99596.41
2019-04-04T16:06:10.755Z,99596.59
2019-04-04T16:08:39.309Z,99596.97
2019-04-04T16:14:28.199Z,99582.77
2019-04-04T16:16:56.668Z,99587.53
2019-04-04T16:19:25.186Z,99590.75
2019-04-04T16:21:53.673Z,99587.72
2019-04-04T16:24:23.683Z,99591.14
2019-04-04T16:26:52.208Z,99587.42
2019-04-04T16:29:24.801Z,99590.33
2019-04-04T16:31:53.359Z,99598.36
2019-04-04T16:34:21.867Z,99594.15
2019-04-04T16:36:50.436Z,99606.77
2019-04-04T16:39:18.997Z,99610.84
2019-04-04T16:41:47.447Z,99619.72
2019-04-04T16:44:16.516Z,99628.89
2019-04-04T16:46:45.013Z,99636.40
2019-04-04T16:49:13.522Z,99639.34
2019-04-04T16:51:42.008Z,99639.88
2019-04-04T16:54:10.482Z,99637.20
2019-04-04T16:56:44.287Z,99641.84
2019-04-04T16:59:12.819Z,99643.91
2019-04-04T17:01:41.354Z,99649.05
2019-04-04T17:04:09.907Z,99646.86
2019-04-04T17:06:38.384Z,99648.42
2019-04-04T17:09:08.003Z,99649.13
2019-04-04T17:11:41.359Z,99649.17
2019-04-04T17:14:09.509Z,99655.48
2019-04-04T17:16:38.079Z,99670.30
2019-04-04T17:19:06.639Z,99668.43
2019-04-04T17:21:35.216Z,99667.11
2019-04-04T17:24:03.782Z,99672.41
2019-04-04T17:26:33.819Z,99678.05
2019-04-04T17:29:02.316Z,99670.94
2019-04-04T17:31:30.855Z,99678.95
2019-04-04T17:33:59.736Z,99689.86
2019-04-04T17:36:31.618Z,99692.26
2019-04-04T17:39:00.648Z,99701.97
2019-04-04T17:41:29.203Z,99708.62
2019-04-04T17:44:02.326Z,99715.79
2019-04-04T17:46:32.357Z,99718.53
2019-04-04T17:49:01.068Z,99726.70
2019-04-04T17:51:29.675Z,99726.73
2019-04-04T17:53:58.295Z,99737.27
2019-04-04T17:56:27.248Z,99746.80
2019-04-04T17:59:00.200Z,99747.83
2019-04-04T18:01:26.455Z,99747.00
2019-04-04T18:03:54.963Z,99740.40
2019-04-04T18:06:31.255Z,99742.27
2019-04-04T18:09:02.236Z,99744.48
2019-04-04T18:11:33.636Z,99747.89
2019-04-04T18:14:02.188Z,99745.53
2019-04-04T18:16:33.403Z,99760.47
2019-04-04T18:19:02.082Z,99758.97
2019-04-04T18:21:30.652Z,99768.97
2019-04-04T18:23:59.190Z,99779.00
2019-04-04T18:26:27.767Z,99785.63
2019-04-04T18:28:56.265Z,99790.03
2019-04-04T18:31:24.933Z,99793.08
2019-04-04T18:33:53.895Z,99789.84
2019-04-04T18:36:25.964Z,99781.88
2019-04-04T18:38:54.468Z,99805.13
2019-04-04T18:41:23.022Z,99813.08
2019-04-04T18:43:53.607Z,99811.85
2019-04-04T18:46:23.639Z,99812.38
2019-04-04T18:48:52.165Z,99810.17
2019-04-04T18:51:20.780Z,99807.95
2019-04-04T18:53:49.335Z,99810.66
2019-04-04T18:56:17.858Z,99815.56
2019-04-04T18:58:47.962Z,99809.78
2019-04-04T19:01:16.615Z,99810.65
2019-04-04T19:03:48.444Z,99811.80
2019-04-04T19:06:19.883Z,99811.28
2019-04-04T19:08:50.577Z,99818.22
2019-04-04T19:11:18.704Z,99814.67
2019-04-04T19:13:47.207Z,99808.24
2019-04-04T19:16:15.722Z,99808.70
2019-04-04T19:18:44.201Z,99793.11
2019-04-04T19:21:12.852Z,99793.28
2019-04-04T19:23:49.037Z,99787.49
2019-04-04T19:26:14.469Z,99778.00
2019-04-04T19:28:51.593Z,99777.16
2019-04-04T19:31:17.626Z,99774.44
2019-04-04T19:33:45.729Z,99776.47
2019-04-04T19:36:14.277Z,99771.89
2019-04-04T19:38:42.844Z,99778.97
2019-04-04T19:41:11.393Z,99780.17
2019-04-04T19:43:39.882Z,99782.03
2019-04-04T19:46:08.491Z,99779.48
2019-04-04T19:48:37.007Z,99782.70
2019-04-04T19:51:15.640Z,99780.29
2019-04-04T19:53:44.126Z,99778.94
2019-04-04T19:56:12.659Z,99790.77
2019-04-04T19:58:44.247Z,99790.59
2019-04-04T20:01:12.810Z,99787.56
2019-04-04T20:03:41.311Z,99786.01
2019-04-04T20:06:09.808Z,99791.58
2019-04-04T20:08:38.305Z,99799.21
2019-04-04T20:11:06.774Z,99798.85
2019-04-04T20:13:35.251Z,99778.80
2019-04-04T20:16:05.258Z,99802.74
2019-04-04T20:18:33.826Z,99797.13
2019-04-04T20:21:05.647Z,99802.53
2019-04-04T20:23:34.125Z,99800.16
2019-04-04T20:26:02.709Z,99813.86
2019-04-04T20:28:32.691Z,99814.02
2019-04-04T20:31:01.261Z,99811.14
2019-04-04T20:33:29.758Z,99809.42
2019-04-04T20:36:00.355Z,99797.89
2019-04-04T20:38:28.885Z,99797.05
2019-04-04T20:40:58.872Z,99792.15
2019-04-04T20:43:27.360Z,99799.38
2019-04-04T20:45:57.497Z,99790.20
2019-04-04T20:48:26.047Z,99804.41
2019-04-04T20:50:55.602Z,99798.13
2019-04-04T20:53:24.041Z,99793.55
2019-04-04T20:55:52.549Z,99800.48
2019-04-04T20:58:21.027Z,99793.16
2019-04-04T21:00:49.532Z,99795.56
2019-04-04T21:03:18.016Z,99801.28
2019-04-04T21:05:46.585Z,99793.67
2019-04-04T21:08:15.047Z,99791.45
2019-04-04T21:10:43.593Z,99792.81
2019-04-04T21:13:12.118Z,99796.66
2019-04-04T21:15:40.589Z,99799.04
2019-04-04T21:18:09.116Z,99797.50
2019-04-04T21:20:37.586Z,99795.80
2019-04-04T21:23:06.167Z,99806.44
2019-04-04T21:25:34.614Z,99804.22
2019-04-04T21:28:03.103Z,99802.84
2019-04-04T21:30:31.570Z,99810.27
2019-04-04T21:33:00.354Z,99817.69
2019-04-04T21:35:28.824Z,99814.66
2019-04-04T21:37:59.810Z,99817.51
2019-04-04T21:40:27.970Z,99811.41
2019-04-04T21:42:56.535Z,99814.11
2019-04-04T21:45:25.181Z,99820.33
2019-04-04T21:47:53.716Z,99821.33
2019-04-04T21:50:22.196Z,99822.50
2019-04-04T21:52:50.711Z,99820.78
2019-04-04T21:55:22.128Z,99814.35
2019-04-04T21:57:50.638Z,99819.04
2019-04-04T22:00:21.857Z,99822.73
2019-04-04T22:02:53.647Z,99825.25
2019-04-04T22:05:22.234Z,99821.34
2019-04-04T22:07:50.716Z,99818.97
2019-04-04T22:10:19.319Z,99821.83
2019-04-04T22:12:47.881Z,99825.52
2019-04-04T22:15:16.389Z,99818.91
2019-04-04T22:17:44.907Z,99827.89
2019-04-04T22:20:13.578Z,99832.94
2019-04-04T22:22:42.149Z,99832.94
2019-04-04T22:25:12.349Z,99835.80
2019-04-04T22:27:40.964Z,99835.80
2019-04-04T22:30:09.924Z,99843.42
2019-04-04T22:32:38.480Z,99836.84
2019-04-04T22:35:07.123Z,99847.66
2019-04-04T22:37:36.184Z,99854.13
2019-04-04T22:40:08.614Z,99852.12
2019-04-04T22:42:37.118Z,99859.72
2019-04-04T22:45:08.004Z,99863.41
2019-04-04T22:47:36.796Z,99867.84
2019-04-04T22:50:06.915Z,99868.67
2019-04-04T22:52:35.451Z,99882.09
2019-04-04T22:55:04.185Z,99881.82
2019-04-04T22:57:32.665Z,99872.17
2019-04-04T23:00:02.804Z,99883.17
2019-04-04T23:02:31.375Z,99887.71
2019-04-04T23:05:01.535Z,99890.34
2019-04-04T23:07:32.789Z,99892.06
2019-04-04T23:10:01.302Z,99889.06
2019-04-04T23:12:32.424Z,99894.03
2019-04-04T23:15:00.860Z,99897.39
2019-04-04T23:17:29.369Z,99905.51
2019-04-04T23:19:57.936Z,99899.73
2019-04-04T23:22:26.440Z,99896.19
2019-04-04T23:24:55.201Z,99891.63
2019-04-04T23:27:23.846Z,99889.57
2019-04-04T23:29:52.446Z,99884.86
2019-04-04T23:32:22.480Z,99879.77
2019-04-04T23:34:51.118Z,99892.28
2019-04-04T23:37:19.603Z,99898.70
2019-04-04T23:39:48.181Z,99895.67
2019-04-04T23:42:18.341Z,99893.63
2019-04-04T23:44:46.861Z,99898.61
2019-04-04T23:47:15.380Z,99903.46
2019-04-04T23:49:45.451Z,99897.58
2019-04-04T23:52:15.549Z,99898.38
2019-04-04T23:54:44.322Z,99892.64
2019-04-04T23:57:12.807Z,99889.64
2019-04-04T23:59:44.268Z,99886.58
